createdAt,value
2022-10-07T00:00:00.126Z,0.00
2022-10-07T00:10:01.444Z,0.00
2022-10-07T00:30:00.173Z,0.00
2022-10-07T00:40:00.998Z,0.00
2022-10-07T00:50:00.134Z,0.00
2022-10-07T01:00:00.201Z,0.00
2022-10-07T01:10:00.141Z,0.00
2022-10-07T01:20:01.077Z,0.00
2022-10-07T01:30:01.207Z,0.00
2022-10-07T01:40:01.256Z,0.00
2022-10-07T01:50:00.110Z,0.00
2022-10-07T02:00:01.285Z,0.00
2022-10-07T02:10:01.502Z,0.00
2022-10-07T02:20:01.253Z,0.00
2022-10-07T02:30:00.149Z,0.00
2022-10-07T02:40:01.023Z,0.00
2022-10-07T02:50:00.140Z,0.00
2022-10-07T03:00:01.008Z,0.00
2022-10-07T03:10:00.119Z,0.00
2022-10-07T03:20:01.063Z,0.00
2022-10-07T03:30:01.255Z,0.00
2022-10-07T03:40:01.010Z,0.00
2022-10-07T03:50:01.857Z,0.00
2022-10-07T04:10:00.961Z,0.00
2022-10-07T04:20:00.205Z,0.00
2022-10-07T04:30:01.537Z,0.00
2022-10-07T04:40:01.500Z,0.11
2022-10-07T04:50:01.265Z,1.13
2022-10-07T05:00:00.146Z,8.72
2022-10-07T05:10:01.233Z,20.00
2022-10-07T05:20:01.474Z,70.00
2022-10-07T05:30:01.242Z,146.67
2022-10-07T05:40:00.984Z,233.33
2022-10-07T05:50:01.482Z,640.00
2022-10-07T06:00:00.160Z,390.00
2022-10-07T06:10:00.158Z,906.67
2022-10-07T06:20:01.537Z,503.33
2022-10-07T06:30:01.240Z,548.33
2022-10-07T06:50:01.026Z,625.00
2022-10-07T07:00:01.343Z,658.33
2022-10-07T07:10:00.144Z,686.67
2022-10-07T07:20:01.049Z,713.33
2022-10-07T07:30:01.221Z,738.33
2022-10-07T07:40:00.137Z,763.33
2022-10-07T07:50:01.011Z,786.67
2022-10-07T08:00:03.186Z,1624.58
2022-10-07T08:10:00.114Z,841.67
2022-10-07T08:20:01.027Z,863.33
2022-10-07T08:30:00.946Z,895.00
2022-10-07T08:40:01.639Z,930.00
2022-10-07T08:50:01.051Z,956.67
2022-10-07T09:00:00.158Z,980.00
2022-10-07T09:10:01.201Z,2015.42
2022-10-07T09:20:00.150Z,2080.00
2022-10-07T09:30:00.944Z,1055.00
2022-10-07T09:40:01.288Z,1086.67
2022-10-07T09:50:01.451Z,2253.33
2022-10-07T10:00:01.237Z,2404.17
2022-10-07T10:10:01.235Z,3706.67
2022-10-07T10:30:01.464Z,23209.17
2022-10-07T10:40:00.998Z,23909.17
2022-10-07T10:50:00.999Z,24279.17
2022-10-07T11:00:00.150Z,24717.08
2022-10-07T11:10:01.995Z,25215.83
2022-10-07T11:20:01.044Z,25173.33
2022-10-07T11:30:01.023Z,25680.42
2022-10-07T11:40:00.152Z,25751.67
2022-10-07T11:50:00.197Z,25830.42
2022-10-07T12:00:01.083Z,26292.08
2022-10-07T12:10:01.435Z,26189.58
2022-10-07T12:20:01.039Z,25925.83
2022-10-07T12:30:01.299Z,25685.83
2022-10-07T12:40:01.217Z,25731.67
2022-10-07T12:50:01.036Z,25560.83
2022-10-07T13:00:01.234Z,25147.50
2022-10-07T13:10:01.477Z,24720.00
2022-10-07T13:20:01.156Z,24380.42
2022-10-07T13:30:01.102Z,23925.42
2022-10-07T13:40:00.281Z,23199.17
2022-10-07T13:50:01.482Z,22427.92
2022-10-07T14:00:01.102Z,21562.92
2022-10-07T14:10:01.137Z,21054.17
2022-10-07T14:20:00.197Z,19938.33
2022-10-07T14:30:00.159Z,18646.67
2022-10-07T14:40:01.075Z,17891.25
2022-10-07T14:50:00.145Z,16693.75
2022-10-07T15:00:01.229Z,15427.08
2022-10-07T15:10:00.975Z,14100.00
2022-10-07T15:20:00.160Z,12483.33
2022-10-07T15:30:02.231Z,10427.92
2022-10-07T15:40:01.639Z,2918.33
2022-10-07T15:50:01.175Z,2469.17
2022-10-07T16:00:00.146Z,818.33
2022-10-07T16:10:01.020Z,1496.25
2022-10-07T16:20:01.062Z,608.75
2022-10-07T16:30:01.060Z,221.25
2022-10-07T16:40:02.984Z,75.42
2022-10-07T16:50:01.263Z,17.50
2022-10-07T17:00:00.156Z,2.60
2022-10-07T17:10:02.132Z,0.34
2022-10-07T17:20:02.306Z,0.00
2022-10-07T17:30:01.253Z,0.00
2022-10-07T17:40:01.243Z,0.00
2022-10-07T17:50:01.296Z,0.00
2022-10-07T18:00:01.414Z,0.00
2022-10-07T18:10:03.066Z,0.00
2022-10-07T18:20:01.560Z,0.00
2022-10-07T18:30:01.234Z,0.00
2022-10-07T18:40:01.513Z,0.00
2022-10-07T18:50:01.240Z,0.00
2022-10-07T19:00:01.237Z,0.00
2022-10-07T19:10:01.018Z,0.00
2022-10-07T19:20:01.282Z,0.00
2022-10-07T19:30:01.226Z,0.00
2022-10-07T19:40:01.033Z,0.00
2022-10-07T19:50:02.141Z,0.00
2022-10-07T20:00:01.258Z,0.00
2022-10-07T20:10:01.452Z,0.00
2022-10-07T20:20:01.208Z,0.00
2022-10-07T20:30:01.185Z,0.00
2022-10-07T20:40:01.586Z,0.00
2022-10-07T20:50:01.008Z,0.00
2022-10-07T21:00:00.997Z,0.00
2022-10-07T21:10:01.283Z,0.00
2022-10-07T21:20:01.020Z,0.00
2022-10-07T21:30:00.930Z,0.00
2022-10-07T21:40:00.162Z,0.00
2022-10-07T21:50:01.037Z,0.00
2022-10-07T22:00:01.457Z,0.00
2022-10-07T22:10:00.989Z,0.00
2022-10-07T22:20:00.174Z,0.00
2022-10-07T22:30:01.133Z,0.00
2022-10-07T22:40:01.500Z,0.00
2022-10-07T22:50:00.143Z,0.00
2022-10-07T23:00:00.159Z,0.00
2022-10-07T23:10:01.307Z,0.00
2022-10-07T23:20:01.844Z,0.00
2022-10-07T23:30:02.068Z,0.00
2022-10-07T23:40:01.335Z,0.00
2022-10-07T23:50:01.493Z,0.00
